createdAt,value
2023-04-22T00:01:09.026Z,13.48
2023-04-22T00:03:37.357Z,14.00
2023-04-22T00:06:05.924Z,14.75
2023-04-22T00:08:35.569Z,14.02
2023-04-22T00:11:03.930Z,13.45
2023-04-22T00:13:32.664Z,13.45
2023-04-22T00:16:01.095Z,12.63
2023-04-22T00:18:29.374Z,12.10
2023-04-22T00:21:00.931Z,12.60
2023-04-22T00:23:29.211Z,12.40
2023-04-22T00:25:58.818Z,13.40
2023-04-22T00:28:27.031Z,12.00
2023-04-22T00:30:55.397Z,12.33
2023-04-22T00:33:23.652Z,12.50
2023-04-22T00:35:52.223Z,13.32
2023-04-22T00:38:20.399Z,13.03
2023-04-22T00:40:48.757Z,11.67
2023-04-22T00:43:18.963Z,12.23
2023-04-22T00:45:48.538Z,11.17
2023-04-22T00:48:16.816Z,12.17
2023-04-22T00:50:45.056Z,12.77
2023-04-22T00:53:13.653Z,12.33
2023-04-22T00:55:42.146Z,12.73
2023-04-22T00:58:11.655Z,11.77
2023-04-22T01:00:41.325Z,12.30
2023-04-22T01:03:11.235Z,11.97
2023-04-22T01:05:40.362Z,13.30
2023-04-22T01:08:08.698Z,12.27
2023-04-22T01:10:37.300Z,11.67
2023-04-22T01:13:06.338Z,12.07
2023-04-22T01:15:34.751Z,11.13
2023-04-22T01:18:05.371Z,14.70
2023-04-22T01:20:34.159Z,12.30
2023-04-22T01:23:04.993Z,11.80
2023-04-22T01:25:34.969Z,12.97
2023-04-22T01:28:04.405Z,12.30
2023-04-22T01:30:33.370Z,12.23
2023-04-22T01:33:02.098Z,12.10
2023-04-22T01:35:37.006Z,12.33
2023-04-22T01:38:05.779Z,12.47
2023-04-22T01:40:35.786Z,12.53
2023-04-22T01:43:04.473Z,11.97
2023-04-22T01:45:32.833Z,12.73
2023-04-22T01:48:01.095Z,12.53
2023-04-22T01:50:29.402Z,12.70
2023-04-22T01:52:58.391Z,12.60
2023-04-22T01:55:27.166Z,12.37
2023-04-22T01:57:56.777Z,12.93
2023-04-22T02:00:25.129Z,13.13
2023-04-22T02:02:53.745Z,12.27
2023-04-22T02:05:22.027Z,12.07
2023-04-22T02:07:53.559Z,12.20
2023-04-22T02:10:24.138Z,13.00
2023-04-22T02:12:52.461Z,12.87
2023-04-22T02:15:22.934Z,12.97
2023-04-22T02:17:54.698Z,13.50
2023-04-22T02:20:23.112Z,12.33
2023-04-22T02:22:51.947Z,12.57
2023-04-22T02:25:21.513Z,12.50
2023-04-22T02:27:51.581Z,12.60
2023-04-22T02:30:22.309Z,12.53
2023-04-22T02:32:50.652Z,12.40
2023-04-22T02:35:20.680Z,11.90
2023-04-22T02:37:52.045Z,11.97
2023-04-22T02:40:20.332Z,12.30
2023-04-22T02:42:49.324Z,11.70
2023-04-22T02:45:17.764Z,12.70
2023-04-22T02:47:48.069Z,12.60
2023-04-22T02:50:16.868Z,11.83
2023-04-22T02:52:45.180Z,12.63
2023-04-22T02:55:13.393Z,11.37
2023-04-22T02:57:41.755Z,11.33
2023-04-22T03:00:11.550Z,11.67
2023-04-22T03:02:40.075Z,11.80
2023-04-22T03:05:13.630Z,13.37
2023-04-22T03:07:42.023Z,12.40
2023-04-22T03:10:10.936Z,12.77
2023-04-22T03:12:39.147Z,12.40
2023-04-22T03:15:08.449Z,12.20
2023-04-22T03:17:37.171Z,12.40
2023-04-22T03:20:11.738Z,13.17
2023-04-22T03:22:41.493Z,13.70
2023-04-22T03:25:12.861Z,13.37
2023-04-22T03:27:42.314Z,14.53
2023-04-22T03:30:12.311Z,14.87
2023-04-22T03:32:40.609Z,14.83
2023-04-22T03:35:19.286Z,13.93
2023-04-22T03:37:51.417Z,13.60
2023-04-22T03:40:25.167Z,14.40
2023-04-22T03:42:53.461Z,13.07
2023-04-22T03:45:23.080Z,13.97
2023-04-22T03:48:03.717Z,15.00
2023-04-22T03:50:40.202Z,14.07
2023-04-22T03:53:10.630Z,13.53
2023-04-22T03:55:39.858Z,13.53
2023-04-22T03:58:08.195Z,13.73
2023-04-22T04:00:36.433Z,13.90
2023-04-22T04:03:12.025Z,12.77
2023-04-22T04:05:40.754Z,13.03
2023-04-22T04:08:11.832Z,13.83
2023-04-22T04:10:40.123Z,12.60
2023-04-22T04:13:09.293Z,13.17
2023-04-22T04:15:50.278Z,13.53
2023-04-22T04:18:21.656Z,12.67
2023-04-22T04:20:50.857Z,13.07
2023-04-22T04:23:20.771Z,12.47
2023-04-22T04:25:49.908Z,13.53
2023-04-22T04:28:18.971Z,13.63
2023-04-22T04:30:47.239Z,13.67
2023-04-22T04:33:17.908Z,13.17
2023-04-22T04:35:48.146Z,13.63
2023-04-22T04:38:23.023Z,15.00
2023-04-22T04:40:54.500Z,14.57
2023-04-22T04:43:27.077Z,15.20
2023-04-22T04:46:03.155Z,16.87
2023-04-22T04:48:36.919Z,15.60
2023-04-22T04:51:10.246Z,15.17
2023-04-22T04:53:45.364Z,14.37
2023-04-22T04:56:14.001Z,14.93
2023-04-22T04:58:42.668Z,14.07
2023-04-22T05:01:19.393Z,15.07
2023-04-22T05:03:48.960Z,14.77
2023-04-22T05:06:19.316Z,13.87
2023-04-22T05:08:52.896Z,14.73
2023-04-22T05:11:22.102Z,13.60
2023-04-22T05:13:52.631Z,14.07
2023-04-22T05:16:27.804Z,11.93
2023-04-22T05:18:56.623Z,11.77
2023-04-22T05:21:25.351Z,11.68
2023-04-22T05:23:54.904Z,11.68
2023-04-22T05:26:23.237Z,9.40
2023-04-22T05:28:52.268Z,9.73
2023-04-22T05:31:21.460Z,10.10
2023-04-22T05:33:49.726Z,9.90
2023-04-22T05:36:18.160Z,10.93
2023-04-22T05:38:48.509Z,8.30
2023-04-22T05:41:18.410Z,9.35
2023-04-22T05:43:47.168Z,8.60
2023-04-22T05:46:18.676Z,7.78
2023-04-22T05:48:48.866Z,7.85
2023-04-22T05:51:35.697Z,7.50
2023-04-22T05:54:04.362Z,7.20
2023-04-22T05:56:34.102Z,7.80
2023-04-22T05:59:02.447Z,7.80
2023-04-22T06:01:30.764Z,7.00
2023-04-22T06:04:06.914Z,7.35
2023-04-22T06:06:35.541Z,7.47
2023-04-22T06:09:04.191Z,7.15
2023-04-22T06:11:33.851Z,7.90
2023-04-22T06:14:02.122Z,7.50
2023-04-22T06:16:31.119Z,7.38
2023-04-22T06:18:59.612Z,7.43
2023-04-22T06:21:28.649Z,7.63
2023-04-22T06:23:58.160Z,7.45
2023-04-22T06:26:26.580Z,7.93
2023-04-22T06:28:56.162Z,8.13
2023-04-22T06:31:25.402Z,7.80
2023-04-22T06:33:53.628Z,7.97
2023-04-22T06:36:22.815Z,7.68
2023-04-22T06:38:57.663Z,8.07
2023-04-22T06:41:39.049Z,7.45
2023-04-22T06:44:25.388Z,7.25
2023-04-22T06:47:14.419Z,7.40
2023-04-22T06:50:03.534Z,7.78
2023-04-22T06:52:37.928Z,7.90
2023-04-22T06:55:06.703Z,7.18
2023-04-22T06:57:35.141Z,6.88
2023-04-22T07:00:05.362Z,8.32
2023-04-22T07:02:36.098Z,7.85
2023-04-22T07:05:04.871Z,7.90
2023-04-22T07:07:33.186Z,7.35
2023-04-22T07:10:01.388Z,7.28
2023-04-22T07:12:36.333Z,7.78
2023-04-22T07:15:06.888Z,7.20
2023-04-22T07:17:35.396Z,7.45
2023-04-22T07:20:03.857Z,6.68
2023-04-22T07:22:32.094Z,6.30
2023-04-22T07:25:00.309Z,7.53
2023-04-22T07:27:28.486Z,6.65
2023-04-22T07:29:56.617Z,6.25
2023-04-22T07:32:26.266Z,6.32
2023-04-22T07:34:54.587Z,5.75
2023-04-22T07:37:23.327Z,5.53
2023-04-22T07:39:51.560Z,5.90
2023-04-22T07:42:20.606Z,5.68
2023-04-22T07:44:48.896Z,5.22
2023-04-22T07:47:19.567Z,5.35
2023-04-22T07:49:52.222Z,4.72
2023-04-22T07:52:21.118Z,4.78
2023-04-22T07:54:49.337Z,5.10
2023-04-22T07:57:17.688Z,4.35
2023-04-22T07:59:45.859Z,3.72
2023-04-22T08:02:14.276Z,3.47
2023-04-22T08:04:42.770Z,3.72
2023-04-22T08:07:30.904Z,3.60
2023-04-22T08:10:00.894Z,2.92
2023-04-22T08:12:29.107Z,3.00
2023-04-22T08:14:58.217Z,3.90
2023-04-22T08:17:28.615Z,3.67
2023-04-22T08:20:07.917Z,4.25
2023-04-22T08:22:38.928Z,3.40
2023-04-22T08:25:10.903Z,3.13
2023-04-22T08:27:40.432Z,3.40
2023-04-22T08:30:14.710Z,3.83
2023-04-22T08:32:43.043Z,3.75
2023-04-22T08:35:12.619Z,4.20
2023-04-22T08:37:44.660Z,3.63
2023-04-22T08:40:13.197Z,4.28
2023-04-22T08:42:41.950Z,3.25
2023-04-22T08:45:10.984Z,4.03
2023-04-22T08:47:40.690Z,4.13
2023-04-22T08:50:10.429Z,3.13
2023-04-22T08:52:39.106Z,3.90
2023-04-22T08:55:09.856Z,4.00
2023-04-22T08:57:40.861Z,3.30
2023-04-22T09:00:10.088Z,3.55
2023-04-22T09:02:39.455Z,3.30
2023-04-22T09:05:10.393Z,3.47
2023-04-22T09:07:41.008Z,3.30
2023-04-22T09:10:12.071Z,3.00
2023-04-22T09:12:40.970Z,2.90
2023-04-22T09:15:10.066Z,2.78
2023-04-22T09:17:39.296Z,2.50
2023-04-22T09:20:12.300Z,2.35
2023-04-22T09:22:42.920Z,3.20
2023-04-22T09:25:19.123Z,3.33
2023-04-22T09:27:51.746Z,2.90
2023-04-22T09:30:23.992Z,3.20
2023-04-22T09:32:56.566Z,2.90
2023-04-22T09:35:28.189Z,2.50
2023-04-22T09:37:56.649Z,2.55
2023-04-22T09:40:26.877Z,2.45
2023-04-22T09:42:56.407Z,2.67
2023-04-22T09:45:32.454Z,2.28
2023-04-22T09:48:04.461Z,2.30
2023-04-22T09:50:32.796Z,2.33
2023-04-22T09:53:02.755Z,2.83
2023-04-22T09:55:35.038Z,2.10
2023-04-22T09:58:08.894Z,2.47
2023-04-22T10:00:41.151Z,2.58
2023-04-22T10:03:10.784Z,2.13
2023-04-22T10:05:39.736Z,2.22
2023-04-22T10:08:09.617Z,2.10
2023-04-22T10:10:40.062Z,2.60
2023-04-22T10:13:08.673Z,2.30
2023-04-22T10:15:39.967Z,2.10
2023-04-22T10:18:11.201Z,2.13
2023-04-22T10:20:42.202Z,2.30
2023-04-22T10:23:16.475Z,2.60
2023-04-22T10:25:49.249Z,2.20
2023-04-22T10:28:18.811Z,2.33
2023-04-22T10:30:47.177Z,2.45
2023-04-22T10:33:39.238Z,2.00
2023-04-22T10:36:10.011Z,2.50
2023-04-22T10:38:38.833Z,2.30
2023-04-22T10:41:09.065Z,2.38
2023-04-22T10:43:45.323Z,2.03
2023-04-22T10:46:50.291Z,2.30
2023-04-22T10:49:21.813Z,2.65
2023-04-22T10:51:51.641Z,2.20
2023-04-22T10:54:57.719Z,2.38
2023-04-22T10:57:42.422Z,2.38
2023-04-22T11:00:45.865Z,2.80
2023-04-22T11:03:27.971Z,2.55
2023-04-22T11:06:14.835Z,2.60
2023-04-22T11:08:47.316Z,2.40
2023-04-22T11:11:17.716Z,2.63
2023-04-22T11:13:50.669Z,2.70
2023-04-22T11:16:22.528Z,2.30
2023-04-22T11:18:51.434Z,2.20
2023-04-22T11:21:19.688Z,2.50
2023-04-22T11:23:52.146Z,2.30
2023-04-22T11:26:33.738Z,2.22
2023-04-22T11:29:03.616Z,2.20
2023-04-22T11:31:31.949Z,1.90
2023-04-22T11:34:00.955Z,2.38
2023-04-22T11:36:29.341Z,2.70
2023-04-22T11:38:57.552Z,2.13
2023-04-22T11:41:25.810Z,1.92
2023-04-22T11:43:54.989Z,2.00
2023-04-22T11:46:38.491Z,2.05
2023-04-22T11:49:14.629Z,1.90
2023-04-22T11:51:56.484Z,3.65
2023-04-22T11:54:33.404Z,2.72
2023-04-22T11:57:04.001Z,1.88
2023-04-22T11:59:32.264Z,2.10
2023-04-22T12:02:01.860Z,2.30
2023-04-22T12:04:30.070Z,2.30
2023-04-22T12:07:10.823Z,2.38
2023-04-22T12:09:40.725Z,2.20
2023-04-22T12:12:09.661Z,2.40
2023-04-22T12:14:38.194Z,2.10
2023-04-22T12:17:06.789Z,2.47
2023-04-22T12:19:35.085Z,2.08
2023-04-22T12:22:03.292Z,2.25
2023-04-22T12:24:32.965Z,2.35
2023-04-22T12:27:01.326Z,2.17
2023-04-22T12:29:32.530Z,2.00
2023-04-22T12:32:01.904Z,2.10
2023-04-22T12:34:30.123Z,1.88
2023-04-22T12:36:58.421Z,1.90
2023-04-22T12:39:26.689Z,2.13
2023-04-22T12:41:56.226Z,1.88
2023-04-22T12:44:27.099Z,2.33
2023-04-22T12:46:55.429Z,2.10
2023-04-22T12:49:23.672Z,2.30
2023-04-22T12:51:54.282Z,2.30
2023-04-22T12:54:23.096Z,2.20
2023-04-22T12:56:51.410Z,2.13
2023-04-22T12:59:21.193Z,1.98
2023-04-22T13:01:51.396Z,2.20
2023-04-22T13:04:20.451Z,1.90
2023-04-22T13:06:50.612Z,2.05
2023-04-22T13:09:18.950Z,1.85
2023-04-22T13:11:49.325Z,1.92
2023-04-22T13:14:17.662Z,1.73
2023-04-22T13:16:47.318Z,1.70
2023-04-22T13:19:15.710Z,2.13
2023-04-22T13:21:45.115Z,2.00
2023-04-22T13:24:13.404Z,2.00
2023-04-22T13:26:41.582Z,2.15
2023-04-22T13:29:14.131Z,2.00
2023-04-22T13:31:44.113Z,2.03
2023-04-22T13:34:15.366Z,2.15
2023-04-22T13:36:43.693Z,2.15
2023-04-22T13:39:11.918Z,1.85
2023-04-22T13:41:40.237Z,2.30
2023-04-22T13:44:08.428Z,2.03
2023-04-22T13:46:36.627Z,2.28
2023-04-22T13:49:04.838Z,1.83
2023-04-22T13:51:34.581Z,1.88
2023-04-22T13:54:02.903Z,2.03
2023-04-22T13:56:31.172Z,1.90
2023-04-22T13:59:00.097Z,1.90
2023-04-22T14:01:28.984Z,1.75
2023-04-22T14:03:57.391Z,2.22
2023-04-22T14:06:25.745Z,2.15
2023-04-22T14:08:55.533Z,1.92
2023-04-22T14:11:23.796Z,2.08
2023-04-22T14:13:52.406Z,1.80
2023-04-22T14:16:20.808Z,2.45
2023-04-22T14:18:49.194Z,2.05
2023-04-22T14:21:17.478Z,1.95
2023-04-22T14:23:45.974Z,2.05
2023-04-22T14:26:15.575Z,2.10
2023-04-22T14:28:43.935Z,2.10
2023-04-22T14:31:12.311Z,8.38
2023-04-22T14:33:41.264Z,2.40
2023-04-22T14:36:09.633Z,1.88
2023-04-22T14:38:37.858Z,2.00
2023-04-22T14:41:06.454Z,2.08
2023-04-22T14:43:36.225Z,2.47
2023-04-22T14:46:04.758Z,2.75
2023-04-22T14:48:35.425Z,2.83
2023-04-22T14:51:03.844Z,2.67
2023-04-22T14:53:33.316Z,4.75
2023-04-22T14:56:01.656Z,4.15
2023-04-22T14:58:31.750Z,4.28
2023-04-22T15:01:01.802Z,8.75
2023-04-22T15:03:30.824Z,5.47
2023-04-22T15:05:59.230Z,5.20
2023-04-22T15:08:27.536Z,3.03
2023-04-22T15:10:55.875Z,2.65
2023-04-22T15:13:24.084Z,3.05
2023-04-22T15:15:52.687Z,2.88
2023-04-22T15:18:22.354Z,2.65
2023-04-22T15:20:50.595Z,2.88
2023-04-22T15:23:18.844Z,3.75
2023-04-22T15:25:47.332Z,2.72
2023-04-22T15:28:15.596Z,2.65
2023-04-22T15:30:44.053Z,2.88
2023-04-22T15:33:12.294Z,3.00
2023-04-22T15:35:43.276Z,2.70
2023-04-22T15:38:11.567Z,2.33
2023-04-22T15:40:39.906Z,2.15
2023-04-22T15:43:08.154Z,2.30
2023-04-22T15:45:36.487Z,2.50
2023-04-22T15:48:05.949Z,3.60
2023-04-22T15:50:34.313Z,3.75
2023-04-22T15:53:03.970Z,2.80
2023-04-22T15:55:32.257Z,2.22
2023-04-22T15:58:00.706Z,2.63
2023-04-22T16:00:29.099Z,2.70
2023-04-22T16:02:57.556Z,5.13
2023-04-22T16:05:26.410Z,2.60
2023-04-22T16:07:55.872Z,2.20
2023-04-22T16:10:26.989Z,2.28
2023-04-22T16:12:55.260Z,2.00
2023-04-22T16:15:25.961Z,1.92
2023-04-22T16:17:54.341Z,2.20
2023-04-22T16:20:22.808Z,2.20
2023-04-22T16:22:51.048Z,2.00
2023-04-22T16:25:19.548Z,2.00
2023-04-22T16:27:49.216Z,1.73
2023-04-22T16:30:17.758Z,2.08
2023-04-22T16:32:46.097Z,1.70
2023-04-22T16:35:14.476Z,2.03
2023-04-22T16:37:42.768Z,2.70
2023-04-22T16:40:11.514Z,11.70
2023-04-22T16:42:39.911Z,3.67
2023-04-22T16:45:10.146Z,3.80
2023-04-22T16:47:38.549Z,2.97
2023-04-22T16:50:10.444Z,5.32
2023-04-22T16:52:39.110Z,16.48
2023-04-22T16:55:08.734Z,3.85
2023-04-22T16:57:39.432Z,2.10
2023-04-22T17:00:10.455Z,2.25
2023-04-22T17:02:38.894Z,2.10
2023-04-22T17:05:07.772Z,1.88
2023-04-22T17:07:36.110Z,2.05
2023-04-22T17:10:05.053Z,2.90
2023-04-22T17:12:33.316Z,2.38
2023-04-22T17:15:01.558Z,2.22
2023-04-22T17:17:31.380Z,2.10
2023-04-22T17:19:59.861Z,2.20
2023-04-22T17:22:28.460Z,3.78
2023-04-22T17:24:58.775Z,27.55
2023-04-22T17:27:27.555Z,37.50
2023-04-22T17:29:55.788Z,29.02
2023-04-22T17:32:24.306Z,12.77
2023-04-22T17:34:54.359Z,26.70
2023-04-22T17:37:22.601Z,12.52
2023-04-22T17:39:51.056Z,21.50
2023-04-22T17:42:20.304Z,19.48
2023-04-22T17:44:49.875Z,13.13
2023-04-22T17:47:18.176Z,7.60
2023-04-22T17:49:46.437Z,4.25
2023-04-22T17:52:16.794Z,3.67
2023-04-22T17:54:44.984Z,2.63
2023-04-22T17:57:13.199Z,2.70
2023-04-22T17:59:41.581Z,2.20
2023-04-22T18:02:12.219Z,3.10
2023-04-22T18:04:41.891Z,2.17
2023-04-22T18:07:10.234Z,2.50
2023-04-22T18:09:40.097Z,2.17
2023-04-22T18:12:08.419Z,2.35
2023-04-22T18:14:36.804Z,2.30
2023-04-22T18:17:05.090Z,2.03
2023-04-22T18:19:33.370Z,2.30
2023-04-22T18:22:02.137Z,2.40
2023-04-22T18:24:30.694Z,2.00
2023-04-22T18:27:00.376Z,2.03
2023-04-22T18:29:28.662Z,2.00
2023-04-22T18:31:57.952Z,2.50
2023-04-22T18:34:26.510Z,2.10
2023-04-22T18:36:54.686Z,2.30
2023-04-22T18:39:22.939Z,2.70
2023-04-22T18:41:51.326Z,2.10
2023-04-22T18:44:21.644Z,2.40
2023-04-22T18:46:50.498Z,2.63
2023-04-22T18:49:18.886Z,2.50
2023-04-22T18:51:49.275Z,3.30
2023-04-22T18:54:17.535Z,2.63
2023-04-22T18:56:46.094Z,2.95
2023-04-22T18:59:14.501Z,2.53
2023-04-22T19:01:44.214Z,2.80
2023-04-22T19:04:12.974Z,2.92
2023-04-22T19:06:41.523Z,2.90
2023-04-22T19:09:09.736Z,2.78
2023-04-22T19:11:38.049Z,3.08
2023-04-22T19:14:06.351Z,3.10
2023-04-22T19:16:35.047Z,2.92
2023-04-22T19:19:04.861Z,2.90
2023-04-22T19:21:33.423Z,3.00
2023-04-22T19:24:01.632Z,3.70
2023-04-22T19:26:30.051Z,3.58
2023-04-22T19:28:58.279Z,3.72
2023-04-22T19:31:29.619Z,3.20
2023-04-22T19:33:58.114Z,3.03
2023-04-22T19:36:28.253Z,2.95
2023-04-22T19:38:56.503Z,3.15
2023-04-22T19:41:24.731Z,3.15
2023-04-22T19:43:53.023Z,2.92
2023-04-22T19:46:21.209Z,3.47
2023-04-22T19:48:50.197Z,3.33
2023-04-22T19:51:18.701Z,3.38
2023-04-22T19:53:48.949Z,4.53
2023-04-22T19:56:17.479Z,3.13
2023-04-22T19:58:46.074Z,3.22
2023-04-22T20:01:14.776Z,3.15
2023-04-22T20:03:43.799Z,3.47
2023-04-22T20:06:13.646Z,3.70
2023-04-22T20:08:43.327Z,3.50
2023-04-22T20:11:13.546Z,3.90
2023-04-22T20:13:42.375Z,3.88
2023-04-22T20:16:11.806Z,3.83
2023-04-22T20:18:40.384Z,4.20
2023-04-22T20:21:09.928Z,4.72
2023-04-22T20:23:39.134Z,4.30
2023-04-22T20:26:08.317Z,4.18
2023-04-22T20:28:45.168Z,4.90
2023-04-22T20:31:44.993Z,4.78
2023-04-22T20:34:13.502Z,5.72
2023-04-22T20:36:42.035Z,5.68
2023-04-22T20:39:14.735Z,5.32
2023-04-22T20:41:43.917Z,5.78
2023-04-22T20:44:14.243Z,5.65
2023-04-22T20:46:42.463Z,5.05
2023-04-22T20:49:10.721Z,6.50
2023-04-22T20:51:39.604Z,5.65
2023-04-22T20:54:17.788Z,5.38
2023-04-22T20:56:57.864Z,6.28
2023-04-22T20:59:27.758Z,6.30
2023-04-22T21:01:56.536Z,5.80
2023-04-22T21:04:25.603Z,5.53
2023-04-22T21:06:55.675Z,6.13
2023-04-22T21:09:25.955Z,5.35
2023-04-22T21:11:54.970Z,5.82
2023-04-22T21:14:26.299Z,5.50
2023-04-22T21:17:01.800Z,6.13
2023-04-22T21:19:33.034Z,6.35
2023-04-22T21:22:06.204Z,6.22
2023-04-22T21:24:35.991Z,6.88
2023-04-22T21:27:04.834Z,6.32
2023-04-22T21:29:34.112Z,7.07
2023-04-22T21:32:09.446Z,7.60
2023-04-22T21:34:38.230Z,7.75
2023-04-22T21:37:07.787Z,8.20
2023-04-22T21:39:36.313Z,8.70
2023-04-22T21:42:08.156Z,8.63
2023-04-22T21:44:37.574Z,9.50
2023-04-22T21:47:07.842Z,9.77
2023-04-22T21:49:36.076Z,10.18
2023-04-22T21:52:04.334Z,10.38
2023-04-22T21:54:32.627Z,10.10
2023-04-22T21:57:01.226Z,10.52
2023-04-22T21:59:29.416Z,10.10
2023-04-22T22:01:57.760Z,10.05
2023-04-22T22:04:27.545Z,9.50
2023-04-22T22:06:56.065Z,8.88
2023-04-22T22:09:24.292Z,10.23
2023-04-22T22:11:52.608Z,10.05
2023-04-22T22:14:20.885Z,8.93
2023-04-22T22:16:49.955Z,9.63
2023-04-22T22:19:18.312Z,9.85
2023-04-22T22:21:47.986Z,9.48
2023-04-22T22:24:16.297Z,10.07
2023-04-22T22:26:44.518Z,9.27
2023-04-22T22:29:15.650Z,8.93
2023-04-22T22:31:44.354Z,8.85
2023-04-22T22:34:12.982Z,9.70
2023-04-22T22:36:41.323Z,9.98
2023-04-22T22:39:14.469Z,8.32
2023-04-22T22:41:43.967Z,9.38
2023-04-22T22:44:12.429Z,9.68
2023-04-22T22:46:41.422Z,9.20
2023-04-22T22:49:09.992Z,9.25
2023-04-22T22:51:38.487Z,9.07
2023-04-22T22:54:07.058Z,9.38
2023-04-22T22:56:36.843Z,9.88
2023-04-22T22:59:05.059Z,10.45
2023-04-22T23:01:33.484Z,10.20
2023-04-22T23:04:01.914Z,10.20
2023-04-22T23:06:31.906Z,10.68
2023-04-22T23:09:00.694Z,10.38
2023-04-22T23:11:28.871Z,9.73
2023-04-22T23:13:58.413Z,9.80
2023-04-22T23:16:27.169Z,9.65
2023-04-22T23:18:56.839Z,10.23
2023-04-22T23:21:25.298Z,9.95
2023-04-22T23:23:56.101Z,10.27
2023-04-22T23:26:24.754Z,10.65
2023-04-22T23:28:53.326Z,11.05
2023-04-22T23:31:24.266Z,11.73
2023-04-22T23:33:55.743Z,12.15
2023-04-22T23:36:25.602Z,11.30
2023-04-22T23:38:56.662Z,12.00
2023-04-22T23:41:26.248Z,11.63
2023-04-22T23:43:54.444Z,11.32
2023-04-22T23:46:24.206Z,11.60
2023-04-22T23:48:52.556Z,12.10
2023-04-22T23:51:20.904Z,12.13
2023-04-22T23:53:49.064Z,11.30
2023-04-22T23:56:21.110Z,11.88
2023-04-22T23:58:50.065Z,11.43
